Time;durP1;ratioP1;P1;durP2;ratioP2;P2;SDS_P1;SDS_P2;PMS_P1;PMS_P2;Temp;Humidity;BMP_temperature;BMP_pressure;BME280_temperature;BME280_humidity;BME280_pressure;Samples;Min_cycle;Max_cycle;Signal;HPM_P1;HPM_P2
2023/07/18 00:01:58;;;;;;;3.65;2.00;;;;;;;19.35;34.73;101753.50;4969052;28;20055;-80
2023/07/18 00:04:28;;;;;;;4.38;2.20;;;;;;;19.35;34.89;101763.72;4954223;28;20047;-79
2023/07/18 00:06:56;;;;;;;4.05;2.00;;;;;;;19.31;34.36;101768.75;4982929;28;20046;-79
2023/07/18 00:09:24;;;;;;;4.75;2.33;;;;;;;19.29;34.83;101770.84;4953499;28;20050;-80
2023/07/18 00:11:53;;;;;;;3.50;2.03;;;;;;;19.28;34.72;101760.78;4983110;28;20511;-80
2023/07/18 00:14:22;;;;;;;4.78;2.45;;;;;;;19.24;34.76;101771.34;4987152;28;21022;-80
2023/07/18 00:16:51;;;;;;;3.67;2.05;;;;;;;19.23;34.81;101771.50;4971219;28;20136;-80
2023/07/18 00:19:19;;;;;;;4.22;2.40;;;;;;;19.22;34.90;101775.31;4995304;28;20075;-80
2023/07/18 00:21:48;;;;;;;4.10;2.10;;;;;;;19.21;34.83;101768.88;4978726;28;20047;-79
2023/07/18 00:24:15;;;;;;;4.85;2.30;;;;;;;19.21;34.63;101770.81;4969112;28;20043;-79
2023/07/18 00:26:43;;;;;;;3.72;1.95;;;;;;;19.20;34.70;101780.16;4991972;28;20062;-79
2023/07/18 00:29:13;;;;;;;4.13;2.35;;;;;;;19.22;34.58;101783.63;4968035;28;20031;-79
2023/07/18 00:31:41;;;;;;;4.43;2.17;;;;;;;19.18;34.61;101776.66;4957547;28;20103;-79
2023/07/18 00:34:09;;;;;;;3.65;2.08;;;;;;;19.19;34.55;101776.50;4992607;28;20051;-80
2023/07/18 00:36:37;;;;;;;3.72;2.15;;;;;;;19.19;34.63;101772.84;4994817;28;20046;-80
2023/07/18 00:39:05;;;;;;;3.88;2.05;;;;;;;19.18;34.83;101773.88;4991331;28;20525;-80
2023/07/18 00:41:33;;;;;;;4.18;2.22;;;;;;;19.17;35.06;101767.47;4958425;28;20043;-80
2023/07/18 00:44:01;;;;;;;3.58;2.00;;;;;;;19.17;35.10;101767.47;4977220;28;20039;-80
2023/07/18 00:46:31;;;;;;;4.20;2.25;;;;;;;19.19;35.00;101765.41;4994351;28;20098;-80
2023/07/18 00:49:00;;;;;;;4.05;2.10;;;;;;;19.17;34.79;101764.69;4975213;28;20474;-80
2023/07/18 00:51:30;;;;;;;4.90;2.05;;;;;;;19.17;35.26;101769.38;4995899;28;20463;-81
2023/07/18 00:53:59;;;;;;;4.32;2.47;;;;;;;19.14;34.97;101756.69;4994863;28;20070;-81
2023/07/18 00:56:27;;;;;;;5.13;2.50;;;;;;;19.14;35.08;101756.69;4961858;28;20127;-81
2023/07/18 00:58:55;;;;;;;3.35;2.00;;;;;;;19.12;35.05;101752.38;4961999;28;20471;-80
2023/07/18 01:01:25;;;;;;;3.50;2.25;;;;;;;19.11;35.15;101745.09;4994369;28;20055;-81
2023/07/18 01:03:54;;;;;;;4.38;2.47;;;;;;;19.11;35.06;101751.50;4991901;28;20510;-81
2023/07/18 01:06:24;;;;;;;5.43;2.60;;;;;;;19.07;35.41;101744.53;4958355;28;20058;-81
2023/07/18 01:08:54;;;;;;;4.70;2.58;;;;;;;19.03;35.23;101743.16;4977253;28;20154;-81
2023/07/18 01:11:24;;;;;;;5.28;2.50;;;;;;;19.04;35.04;101752.34;4961465;28;20127;-81
2023/07/18 01:13:52;;;;;;;4.93;2.70;;;;;;;19.02;34.92;101752.50;4982514;28;20471;-81
2023/07/18 01:16:20;;;;;;;5.60;2.17;;;;;;;19.00;35.21;101748.16;4964591;28;20414;-81
2023/07/18 01:18:48;;;;;;;4.13;2.20;;;;;;;18.97;34.91;101749.34;4990232;28;20047;-79
2023/07/18 01:21:20;;;;;;;4.20;2.45;;;;;;;18.97;35.20;101749.34;4966048;28;20047;-80
2023/07/18 01:23:48;;;;;;;4.25;2.30;;;;;;;18.93;34.95;101747.97;4997577;28;20046;-80
2023/07/18 01:26:16;;;;;;;5.15;2.35;;;;;;;18.90;35.50;101746.38;4996978;28;20023;-80
2023/07/18 01:28:45;;;;;;;4.93;2.10;;;;;;;18.86;35.64;101745.00;4975133;28;20386;-80
2023/07/18 01:31:13;;;;;;;4.15;2.45;;;;;;;18.83;35.44;101750.00;4990824;28;20063;-80
2023/07/18 01:33:43;;;;;;;4.50;2.28;;;;;;;18.81;35.11;101743.75;4991556;28;20051;-80
2023/07/18 01:36:11;;;;;;;5.90;2.60;;;;;;;18.77;35.17;101743.22;4975191;28;20106;-80
2023/07/18 01:38:41;;;;;;;4.25;2.58;;;;;;;18.78;35.10;101738.56;4960064;28;20046;-80
2023/07/18 01:41:09;;;;;;;5.03;2.53;;;;;;;18.70;35.27;101727.44;4959916;28;20585;-81
2023/07/18 01:43:37;;;;;;;4.38;2.50;;;;;;;18.66;35.52;101729.66;4956741;28;20503;-80
2023/07/18 01:46:04;;;;;;;4.63;2.30;;;;;;;18.63;35.62;101718.03;4988437;28;20074;-80
2023/07/18 01:48:34;;;;;;;3.85;2.33;;;;;;;18.60;35.31;101726.69;4987665;28;20048;-81
2023/07/18 01:51:03;;;;;;;5.10;2.85;;;;;;;18.56;35.67;101722.47;4971295;28;20066;-80
2023/07/18 01:53:31;;;;;;;4.80;2.80;;;;;;;18.54;36.04;101725.44;4971901;28;20241;-80
2023/07/18 01:56:00;;;;;;;4.57;2.33;;;;;;;18.53;35.58;101726.47;4988410;28;20070;-80
2023/07/18 01:58:28;;;;;;;4.85;2.63;;;;;;;18.48;35.82;101721.41;4967269;28;20403;-80
2023/07/18 02:00:56;;;;;;;4.72;2.45;;;;;;;18.48;35.85;101731.59;4986893;28;20043;-80
2023/07/18 02:03:24;;;;;;;5.10;2.45;;;;;;;18.45;35.95;101729.19;4989243;28;20066;-80
2023/07/18 02:05:52;;;;;;;5.15;2.65;;;;;;;18.42;36.05;101730.38;4971313;28;20668;-81
2023/07/18 02:08:20;;;;;;;5.30;2.58;;;;;;;18.40;36.12;101726.00;4988930;28;20110;-80
2023/07/18 02:10:48;;;;;;;4.32;2.50;;;;;;;18.38;36.34;101717.88;4978764;28;20043;-81
2023/07/18 02:13:17;;;;;;;4.53;2.38;;;;;;;18.38;36.14;101715.13;4983123;28;20047;-80
2023/07/18 02:15:45;;;;;;;4.03;2.22;;;;;;;18.32;36.09;101721.28;4987045;28;20514;-80
2023/07/18 02:18:13;;;;;;;4.28;2.30;;;;;;;18.29;35.86;101713.31;4988905;28;20237;-80
2023/07/18 02:20:42;;;;;;;4.30;2.35;;;;;;;18.27;35.96;101720.94;4987397;28;20506;-80
2023/07/18 02:23:10;;;;;;;4.18;2.10;;;;;;;18.25;36.40;101711.03;4967267;28;20050;-80
2023/07/18 02:25:39;;;;;;;4.03;2.00;;;;;;;18.23;35.99;101707.53;4969159;28;20096;-81
2023/07/18 02:28:07;;;;;;;4.10;2.17;;;;;;;18.21;36.11;101720.72;4970364;28;20047;-80
2023/07/18 02:30:36;;;;;;;4.75;2.40;;;;;;;18.18;36.12;101713.59;4962778;28;20039;-80
2023/07/18 02:33:06;;;;;;;3.85;2.15;;;;;;;18.12;35.97;101711.50;4980898;28;20043;-80
2023/07/18 02:35:37;;;;;;;4.20;2.20;;;;;;;18.09;36.56;101703.50;4986255;28;20463;-80
2023/07/18 02:38:05;;;;;;;4.97;2.10;;;;;;;18.06;36.33;101707.44;4970454;28;20059;-80
2023/07/18 02:40:33;;;;;;;4.47;2.60;;;;;;;18.03;36.19;101709.69;4954758;28;20039;-80
2023/07/18 02:43:03;;;;;;;4.05;2.20;;;;;;;18.00;36.53;101710.00;4986358;28;20031;-80
2023/07/18 02:45:32;;;;;;;4.00;2.20;;;;;;;17.97;36.23;101711.22;4954091;28;20075;-79
2023/07/18 02:48:01;;;;;;;4.25;2.22;;;;;;;17.97;36.70;101702.03;4986267;28;20067;-80
2023/07/18 02:50:29;;;;;;;3.58;1.92;;;;;;;17.92;36.36;101698.88;4969940;28;20082;-81
2023/07/18 02:52:58;;;;;;;4.53;2.38;;;;;;;17.90;36.77;101700.94;4969757;28;20465;-81
2023/07/18 02:55:27;;;;;;;3.50;2.33;;;;;;;17.86;36.74;101697.63;4953618;28;20043;-80
2023/07/18 02:57:55;;;;;;;3.30;1.95;;;;;;;17.85;36.44;101701.44;4953086;28;20411;-80
2023/07/18 03:00:25;;;;;;;4.25;2.42;;;;;;;17.85;36.71;101708.84;4959145;28;20050;-80
2023/07/18 03:02:54;;;;;;;4.72;2.40;;;;;;;17.82;36.64;101701.72;4968627;28;20126;-80
2023/07/18 03:05:24;;;;;;;4.35;2.40;;;;;;;17.81;37.03;101705.56;4954853;28;20090;-81
2023/07/18 03:07:54;;;;;;;3.75;1.83;;;;;;;17.78;37.02;101703.09;4972161;28;20514;-81
2023/07/18 03:10:22;;;;;;;4.50;2.47;;;;;;;17.76;36.76;101706.03;4981881;28;20053;-80
2023/07/18 03:12:50;;;;;;;4.68;2.30;;;;;;;17.75;37.04;101698.75;5007100;28;20116;-80
2023/07/18 03:15:20;;;;;;;4.25;2.13;;;;;;;17.74;36.73;101693.38;4992414;28;20042;-80
2023/07/18 03:17:48;;;;;;;3.65;2.10;;;;;;;17.73;36.68;101700.75;4994605;28;20054;-80
2023/07/18 03:20:19;;;;;;;5.03;2.60;;;;;;;17.72;36.81;101698.19;4953724;28;20043;-80
2023/07/18 03:22:50;;;;;;;4.45;2.15;;;;;;;17.72;36.80;101700.97;4954129;28;20126;-80
2023/07/18 03:25:19;;;;;;;4.45;2.50;;;;;;;17.69;37.15;101699.38;4984342;28;20051;-80
2023/07/18 03:27:48;;;;;;;4.22;2.30;;;;;;;17.68;37.06;101694.84;4968180;28;20473;-80
2023/07/18 03:30:16;;;;;;;4.30;2.47;;;;;;;17.69;36.96;101695.72;4984564;28;20085;-80
2023/07/18 03:32:45;;;;;;;3.85;2.08;;;;;;;17.70;37.25;101700.25;4958157;28;20047;-80
2023/07/18 03:35:14;;;;;;;4.40;2.40;;;;;;;17.72;36.97;101709.25;4953867;28;20503;-80
2023/07/18 03:37:42;;;;;;;3.75;2.05;;;;;;;17.72;36.96;101701.81;4984866;28;20057;-80
2023/07/18 03:40:15;;;;;;;4.40;2.60;;;;;;;17.75;37.10;101708.94;4968612;28;20047;-80
2023/07/18 03:42:45;;;;;;;4.00;2.17;;;;;;;17.75;37.13;101720.03;4983843;28;20519;-80
2023/07/18 03:45:14;;;;;;;4.75;2.17;;;;;;;17.74;36.68;101709.97;4985873;28;20047;-80
2023/07/18 03:47:42;;;;;;;6.00;2.35;;;;;;;17.74;36.86;101708.09;4969352;28;20647;-80
2023/07/18 03:50:12;;;;;;;5.10;2.50;;;;;;;17.76;37.22;101705.16;4971092;28;20040;-80
2023/07/18 03:52:41;;;;;;;3.92;2.33;;;;;;;17.73;37.10;101703.53;4970936;28;20050;-80
2023/07/18 03:55:11;;;;;;;4.30;2.50;;;;;;;17.75;37.24;101701.50;4980911;28;20047;-80
2023/07/18 03:57:41;;;;;;;4.20;2.15;;;;;;;17.74;36.89;101699.78;4996652;28;20057;-80
2023/07/18 04:00:14;;;;;;;5.05;2.47;;;;;;;17.72;37.00;101693.53;4967378;28;20120;-80
2023/07/18 04:02:43;;;;;;;4.72;2.45;;;;;;;17.70;37.27;101691.94;4966911;28;20150;-79
2023/07/18 04:05:14;;;;;;;4.38;2.42;;;;;;;17.70;36.93;101694.69;4984190;28;20563;-79
2023/07/18 04:07:43;;;;;;;4.50;2.30;;;;;;;17.68;36.89;101692.09;4985644;28;20035;-79
2023/07/18 04:10:14;;;;;;;4.50;2.33;;;;;;;17.69;37.21;101690.19;4966066;28;20035;-80
2023/07/18 04:12:42;;;;;;;5.88;2.30;;;;;;;17.66;37.09;101683.06;4980838;28;20071;-80
2023/07/18 04:15:12;;;;;;;4.32;2.35;;;;;;;17.65;36.81;101689.63;4986855;28;20047;-80
2023/07/18 04:17:40;;;;;;;5.03;2.30;;;;;;;17.63;37.23;101697.25;4954987;28;20554;-79
2023/07/18 04:20:08;;;;;;;4.13;2.40;;;;;;;17.62;36.97;101698.28;4969446;28;20134;-80
2023/07/18 04:22:36;;;;;;;4.32;2.22;;;;;;;17.61;36.99;101693.75;4952539;28;20078;-80
2023/07/18 04:25:06;;;;;;;4.57;2.38;;;;;;;17.60;36.82;101692.03;4967909;28;20090;-80
2023/07/18 04:27:35;;;;;;;4.88;2.70;;;;;;;17.59;37.01;101692.19;4968273;28;20503;-79
2023/07/18 04:30:04;;;;;;;4.35;2.30;;;;;;;17.54;36.76;101700.09;4954609;28;20039;-79
2023/07/18 04:32:32;;;;;;;5.13;2.60;;;;;;;17.53;36.91;101692.81;4985626;28;20094;-79
2023/07/18 04:35:00;;;;;;;4.57;2.45;;;;;;;17.51;37.22;101694.88;4968521;28;20043;-79
2023/07/18 04:37:28;;;;;;;6.22;2.60;;;;;;;17.51;37.55;101694.88;4964629;28;20044;-79
2023/07/18 04:39:56;;;;;;;4.35;2.53;;;;;;;17.47;37.62;101697.09;4968764;28;20046;-79
2023/07/18 04:42:24;;;;;;;4.35;2.33;;;;;;;17.49;37.17;101694.16;4950720;28;20122;-79
2023/07/18 04:44:53;;;;;;;3.65;2.25;;;;;;;17.50;37.17;101693.13;4967186;28;20130;-79
2023/07/18 04:47:21;;;;;;;4.55;2.55;;;;;;;17.48;37.73;101692.44;4980506;28;20131;-80
2023/07/18 04:49:49;;;;;;;4.18;2.30;;;;;;;17.47;37.31;101694.34;4948947;28;20051;-80
2023/07/18 04:52:18;;;;;;;4.32;2.28;;;;;;;17.47;37.29;101690.69;4955416;28;20053;-80
2023/07/18 04:54:46;;;;;;;4.53;2.30;;;;;;;17.46;37.56;101683.44;4988873;28;20062;-79
2023/07/18 04:57:14;;;;;;;4.22;2.22;;;;;;;17.46;37.73;101684.28;4991796;28;20523;-79
2023/07/18 04:59:42;;;;;;;4.88;2.40;;;;;;;17.45;37.60;101684.44;4990114;28;20197;-79
2023/07/18 05:02:11;;;;;;;5.00;2.50;;;;;;;17.46;37.86;101680.66;4984361;28;20051;-79
2023/07/18 05:04:39;;;;;;;6.18;2.65;;;;;;;17.44;37.49;101677.19;4960404;28;20044;-78
2023/07/18 05:07:08;;;;;;;4.80;2.53;;;;;;;17.42;37.58;101674.56;4985030;28;20071;-79
2023/07/18 05:09:36;;;;;;;5.30;2.85;;;;;;;17.41;37.91;101670.06;4983579;28;20056;-81
2023/07/18 05:12:05;;;;;;;5.72;2.78;;;;;;;17.41;37.89;101681.13;4988797;28;20366;-80
2023/07/18 05:14:33;;;;;;;5.45;2.80;;;;;;;17.39;38.29;101673.00;4986913;28;20571;-80
2023/07/18 05:17:01;;;;;;;6.20;2.92;;;;;;;17.42;38.05;101680.09;4989246;28;20142;-80
2023/07/18 05:19:30;;;;;;;4.75;2.70;;;;;;;17.49;38.17;101681.19;4956173;28;20043;-80
2023/07/18 05:21:58;;;;;;;4.00;2.40;;;;;;;17.52;38.73;101672.56;4957204;28;20052;-79
2023/07/18 05:24:26;;;;;;;4.93;2.45;;;;;;;17.61;38.99;101677.16;4961485;28;20035;-80
2023/07/18 05:26:54;;;;;;;5.25;2.70;;;;;;;17.70;38.85;101675.31;4992142;28;20071;-79
2023/07/18 05:29:22;;;;;;;5.00;2.55;;;;;;;17.81;38.98;101671.47;4957302;28;20094;-80
2023/07/18 05:31:50;;;;;;;5.53;2.50;;;;;;;17.94;38.61;101674.66;4996654;28;20134;-79
2023/07/18 05:34:18;;;;;;;4.47;2.42;;;;;;;18.08;38.99;101676.81;4955011;28;20462;-79
2023/07/18 05:36:47;;;;;;;5.60;2.50;;;;;;;18.23;38.30;101685.38;4973622;28;20074;-80
2023/07/18 05:39:15;;;;;;;5.18;2.15;;;;;;;18.35;38.46;101675.75;4972766;28;20464;-80
2023/07/18 05:41:43;;;;;;;4.75;2.17;;;;;;;18.48;38.22;101685.38;4989895;28;20070;-79
2023/07/18 05:44:11;;;;;;;4.22;2.40;;;;;;;18.60;37.97;101680.41;4958373;29;20043;-80
2023/07/18 05:46:39;;;;;;;6.22;2.40;;;;;;;18.74;37.69;101690.00;4954186;28;20055;-80
2023/07/18 05:49:08;;;;;;;5.10;2.38;;;;;;;18.88;37.74;101692.13;4957012;28;20137;-80
2023/07/18 05:51:36;;;;;;;5.35;2.47;;;;;;;18.99;37.18;101691.81;4971874;28;20094;-79
2023/07/18 05:54:06;;;;;;;4.65;2.30;;;;;;;19.12;36.79;101694.97;4977305;28;20551;-80
2023/07/18 05:56:34;;;;;;;5.43;2.38;;;;;;;19.20;37.10;101695.03;4984949;28;20046;-80
2023/07/18 05:59:05;;;;;;;4.32;2.33;;;;;;;19.31;36.82;101693.81;4982796;28;20448;-79
2023/07/18 06:01:33;;;;;;;4.97;2.55;;;;;;;19.43;36.95;101699.91;4970139;28;20106;-80
2023/07/18 06:04:01;;;;;;;5.10;2.38;;;;;;;19.52;36.73;101694.19;4971369;28;20537;-80
2023/07/18 06:06:29;;;;;;;4.78;2.40;;;;;;;19.64;36.58;101691.91;4989531;28;20499;-80
2023/07/18 06:08:59;;;;;;;4.70;2.47;;;;;;;19.74;36.17;101689.84;4987118;28;20423;-80
2023/07/18 06:11:28;;;;;;;3.95;2.28;;;;;;;19.86;35.96;101695.91;4986363;28;20054;-80
2023/07/18 06:13:56;;;;;;;5.88;3.00;;;;;;;19.94;36.02;101693.16;4956425;28;20133;-80
2023/07/18 06:16:24;;;;;;;4.05;2.25;;;;;;;20.04;36.15;101695.75;4966091;28;20059;-80
2023/07/18 06:18:52;;;;;;;3.72;2.40;;;;;;;20.13;35.77;101692.75;4970577;28;20548;-80
2023/07/18 06:21:20;;;;;;;5.25;2.47;;;;;;;20.23;35.86;101695.34;4987677;28;20051;-79
2023/07/18 06:23:49;;;;;;;3.70;2.38;;;;;;;20.30;35.54;101691.66;4987536;28;20154;-80
2023/07/18 06:26:23;;;;;;;4.13;2.40;;;;;;;20.40;35.54;101681.22;4986797;28;20052;-80
2023/07/18 06:28:53;;;;;;;4.20;2.35;;;;;;;20.54;35.34;101684.28;4990346;28;20701;-80
2023/07/18 06:31:22;;;;;;;4.03;2.22;;;;;;;20.60;35.37;101676.16;4985654;28;20070;-80
2023/07/18 06:33:51;;;;;;;4.45;2.25;;;;;;;20.70;35.57;101678.69;4957652;28;20090;-80
2023/07/18 06:36:19;;;;;;;4.53;2.03;;;;;;;20.81;35.21;101683.84;4987095;28;20075;-80
2023/07/18 06:38:47;;;;;;;4.63;2.50;;;;;;;20.91;35.07;101683.63;4987870;28;20075;-78
2023/07/18 06:41:15;;;;;;;4.30;2.47;;;;;;;21.03;34.95;101682.16;5001937;28;20036;-80
2023/07/18 06:43:43;;;;;;;5.45;2.45;;;;;;;21.11;34.65;101677.41;4972101;28;20062;-80
2023/07/18 06:46:13;;;;;;;5.47;2.45;;;;;;;21.23;34.84;101677.84;4975770;28;20045;-79
2023/07/18 06:48:42;;;;;;;3.97;2.22;;;;;;;21.32;34.60;101681.47;4988253;28;20067;-79
2023/07/18 06:51:10;;;;;;;5.15;2.33;;;;;;;21.40;34.52;101679.50;4950495;28;20126;-80
2023/07/18 06:53:38;;;;;;;5.32;2.33;;;;;;;21.50;34.36;101676.47;4986371;28;20059;-80
2023/07/18 06:56:06;;;;;;;4.60;2.33;;;;;;;21.59;34.30;101680.06;4980782;28;20063;-80
2023/07/18 06:58:34;;;;;;;4.32;2.20;;;;;;;21.69;33.99;101672.28;4987483;28;20047;-75
2023/07/18 07:01:02;;;;;;;4.00;2.08;;;;;;;21.78;33.84;101679.50;4965341;28;20057;-76
2023/07/18 07:03:32;;;;;;;5.07;2.63;;;;;;;21.88;33.82;101671.75;4953414;28;20043;-75
2023/07/18 07:06:00;;;;;;;3.42;2.03;;;;;;;21.95;33.58;101669.13;4981276;28;20051;-76
2023/07/18 07:08:29;;;;;;;5.18;2.15;;;;;;;22.02;33.32;101661.72;4946075;28;20491;-76
2023/07/18 07:11:05;;;;;;;4.75;2.20;;;;;;;22.11;32.31;101666.16;4955185;28;20047;-76
2023/07/18 07:13:34;;;;;;;4.55;2.13;;;;;;;22.15;33.07;101668.38;4951947;28;20487;-76
2023/07/18 07:16:03;;;;;;;4.35;2.30;;;;;;;22.21;33.14;101667.59;4953130;28;20040;-75
2023/07/18 07:18:32;;;;;;;4.18;2.10;;;;;;;22.32;32.93;101668.19;4963925;28;20091;-76
2023/07/18 07:21:00;;;;;;;4.28;1.83;;;;;;;22.37;32.60;101662.91;4967718;28;20539;-75
2023/07/18 07:23:29;;;;;;;4.70;2.00;;;;;;;22.42;32.61;101660.41;4966894;28;20062;-75
2023/07/18 07:25:57;;;;;;;4.82;2.00;;;;;;;22.49;32.23;101653.00;4967684;28;20149;-76
2023/07/18 07:28:25;;;;;;;3.70;1.85;;;;;;;22.55;32.16;101655.03;4952276;28;20126;-76
2023/07/18 07:30:53;;;;;;;3.30;1.70;;;;;;;22.62;32.10;101658.78;4950170;28;20075;-75
2023/07/18 07:33:21;;;;;;;3.92;1.83;;;;;;;22.68;32.13;101660.78;4967037;28;20059;-76
2023/07/18 07:35:50;;;;;;;4.75;2.30;;;;;;;22.76;31.66;101660.66;4966754;28;20499;-76
2023/07/18 07:38:18;;;;;;;4.50;1.75;;;;;;;22.80;31.60;101658.34;4983308;28;20047;-75
2023/07/18 07:40:46;;;;;;;4.63;1.50;;;;;;;22.86;31.47;101649.19;4950745;28;20056;-75
2023/07/18 07:43:14;;;;;;;3.58;1.50;;;;;;;22.92;31.11;101645.66;4951931;28;20568;-76
2023/07/18 07:45:42;;;;;;;3.38;1.80;;;;;;;22.98;31.13;101648.50;4952401;28;20047;-79
2023/07/18 07:48:10;;;;;;;3.92;1.60;;;;;;;23.05;30.89;101645.78;4952212;28;20063;-80
2023/07/18 07:50:38;;;;;;;4.28;1.70;;;;;;;23.11;30.64;101644.97;4969336;28;20043;-80
2023/07/18 07:53:07;;;;;;;3.78;1.63;;;;;;;23.19;30.46;101638.44;4986617;28;20067;-80
2023/07/18 07:55:35;;;;;;;3.20;1.55;;;;;;;23.23;30.29;101643.44;4983682;28;20047;-80
2023/07/18 07:58:05;;;;;;;3.17;1.50;;;;;;;23.28;30.29;101632.53;4967708;28;20047;-80
2023/07/18 08:00:33;;;;;;;3.83;1.70;;;;;;;23.33;30.38;101632.78;4985468;28;20054;-79
2023/07/18 08:03:01;;;;;;;3.90;1.63;;;;;;;23.38;29.96;101629.41;4970429;28;20047;-80
2023/07/18 08:05:29;;;;;;;2.85;1.30;;;;;;;23.42;29.96;101632.63;4969072;28;20047;-80
2023/07/18 08:07:57;;;;;;;3.25;1.42;;;;;;;23.47;29.67;101635.72;4986294;28;20045;-79
2023/07/18 08:10:27;;;;;;;2.97;1.33;;;;;;;23.51;29.96;101634.22;4985131;28;20106;-79
2023/07/18 08:12:55;;;;;;;3.70;1.63;;;;;;;23.54;29.80;101631.03;4982580;28;20039;-78
2023/07/18 08:15:26;;;;;;;4.68;1.85;;;;;;;23.59;29.64;101632.16;4985028;28;20039;-79
2023/07/18 08:17:55;;;;;;;2.70;1.40;;;;;;;23.64;29.30;101635.22;4950260;28;20043;-79
2023/07/18 08:20:24;;;;;;;4.25;1.45;;;;;;;23.69;29.25;101635.47;4970081;28;20042;-79
2023/07/18 08:22:52;;;;;;;2.42;1.17;;;;;;;23.74;29.13;101632.09;4988976;28;20051;-78
2023/07/18 08:25:20;;;;;;;2.80;1.30;;;;;;;23.77;29.01;101626.97;4973483;28;20051;-78
2023/07/18 08:27:49;;;;;;;2.72;1.42;;;;;;;23.83;28.61;101628.09;4956613;28;20051;-79
2023/07/18 08:30:17;;;;;;;2.28;1.27;;;;;;;23.84;28.69;101621.44;4953219;28;20122;-79
2023/07/18 08:32:45;;;;;;;3.83;1.20;;;;;;;23.90;28.64;101616.97;4983219;28;20098;-79
2023/07/18 08:35:13;;;;;;;2.78;1.20;;;;;;;23.95;28.40;101622.81;4952022;28;20031;-79
2023/07/18 08:37:41;;;;;;;3.65;1.48;;;;;;;23.99;28.44;101618.53;4968155;28;20035;-79
2023/07/18 08:40:10;;;;;;;2.90;1.20;;;;;;;24.03;28.25;101617.91;4951706;28;20579;-80
2023/07/18 08:42:38;;;;;;;2.33;1.20;;;;;;;24.08;28.16;101609.75;4982602;28;20044;-79
2023/07/18 08:45:13;;;;;;;3.03;1.40;;;;;;;24.15;27.89;101604.25;4953464;28;20063;-79
2023/07/18 08:47:43;;;;;;;2.90;1.30;;;;;;;24.19;28.19;101601.88;4985009;28;20050;-78
2023/07/18 08:50:11;;;;;;;2.58;1.20;;;;;;;24.24;28.26;101602.13;4964301;28;20052;-79
2023/07/18 08:52:40;;;;;;;2.78;1.10;;;;;;;24.27;27.61;101608.16;4972319;28;20078;-78
2023/07/18 08:55:09;;;;;;;2.95;1.52;;;;;;;24.31;27.35;101603.03;4955718;28;20050;-78
2023/07/18 08:57:41;;;;;;;2.58;1.10;;;;;;;24.31;27.28;101592.72;4972251;28;20043;-78
2023/07/18 09:00:11;;;;;;;3.38;1.30;;;;;;;24.29;27.19;101593.97;4972188;28;20503;-78
2023/07/18 09:02:39;;;;;;;3.03;1.38;;;;;;;24.28;27.16;101595.03;4956905;28;20384;-78
2023/07/18 09:05:27;;;;;;;2.30;1.17;;;;;;;24.29;27.33;101591.19;4957930;28;20115;-79
2023/07/18 09:07:56;;;;;;;2.47;1.30;;;;;;;24.28;26.87;101587.50;4976865;28;20079;-80
2023/07/18 09:10:29;;;;;;;2.85;1.10;;;;;;;24.28;26.90;101575.47;4959539;28;20114;-80
2023/07/18 09:13:02;;;;;;;2.60;1.05;;;;;;;24.32;25.99;101580.41;4982944;28;20039;-80
2023/07/18 09:15:37;;;;;;;1.80;0.90;;;;;;;24.34;26.03;101574.63;4968432;28;20035;-80
2023/07/18 09:18:07;;;;;;;2.05;1.00;;;;;;;24.31;26.60;101564.72;4977696;28;20039;-80
2023/07/18 09:20:35;;;;;;;2.35;0.90;;;;;;;24.33;26.37;101559.75;4963581;28;20040;-79
2023/07/18 09:23:05;;;;;;;2.05;1.10;;;;;;;24.36;26.19;101559.41;4975038;28;20407;-80
2023/07/18 09:25:39;;;;;;;2.35;1.10;;;;;;;24.40;25.50;101557.88;4992663;28;20134;-80
2023/07/18 09:28:10;;;;;;;3.03;1.20;;;;;;;24.41;25.84;101550.34;4978464;28;20062;-80
2023/07/18 09:30:40;;;;;;;1.95;1.08;;;;;;;24.42;25.88;101546.50;4975478;28;20066;-80
2023/07/18 09:33:08;;;;;;;3.35;1.20;;;;;;;24.45;26.39;101548.88;4976981;28;20126;-80
2023/07/18 09:35:36;;;;;;;2.45;1.27;;;;;;;24.49;26.21;101547.38;4957513;28;20079;-80
2023/07/18 09:38:07;;;;;;;2.13;1.20;;;;;;;24.52;25.86;101561.81;4958923;28;20066;-81
2023/07/18 09:40:36;;;;;;;2.28;1.20;;;;;;;24.55;25.80;101554.97;4972364;28;20050;-81
2023/07/18 09:43:07;;;;;;;2.25;1.10;;;;;;;24.58;25.64;101556.44;4971560;28;20098;-79
2023/07/18 09:45:36;;;;;;;2.97;1.05;;;;;;;24.61;25.62;101556.03;4966832;28;20127;-78
2023/07/18 09:48:07;;;;;;;3.70;1.05;;;;;;;24.66;25.67;101564.66;4986584;28;20039;-79
2023/07/18 09:50:39;;;;;;;3.08;1.25;;;;;;;24.69;25.43;101562.31;4955899;28;20079;-78
2023/07/18 09:53:10;;;;;;;;;;;;;;;24.41;26.35;101569.94;4956619;28;20094;-78
2023/07/18 09:55:40;;;;;;;2.78;1.15;;;;;;;24.75;26.21;101558.66;4955779;28;19992;-78
2023/07/18 09:58:12;;;;;;;2.55;1.20;;;;;;;24.88;25.89;101558.72;4955620;28;20039;-78
2023/07/18 10:00:43;;;;;;;2.20;1.25;;;;;;;24.94;25.84;101567.34;4960725;28;20043;-79
2023/07/18 10:03:16;;;;;;;3.67;1.30;;;;;;;25.02;25.31;101565.22;4970762;28;20050;-79
2023/07/18 10:05:46;;;;;;;3.70;1.55;;;;;;;25.03;25.44;101557.69;4991966;28;20047;-78
2023/07/18 10:08:15;;;;;;;3.17;1.38;;;;;;;25.10;25.00;101556.63;4960129;28;20035;-79
2023/07/18 10:11:00;;;;;;;3.00;1.20;;;;;;;25.15;24.63;101558.75;4991419;28;20511;-78
2023/07/18 10:13:28;;;;;;;3.70;1.23;;;;;;;25.14;24.75;101552.28;4986912;28;20051;-79
2023/07/18 10:16:19;;;;;;;2.35;1.33;;;;;;;25.15;24.66;101553.16;4957374;28;20031;-79
2023/07/18 10:18:49;;;;;;;2.17;1.10;;;;;;;25.19;24.76;101555.34;4965598;28;20073;-79
2023/07/18 10:21:29;;;;;;;2.03;1.10;;;;;;;25.20;24.35;101547.78;4955931;28;20043;-79
2023/07/18 10:23:57;;;;;;;2.30;1.25;;;;;;;25.18;25.13;101538.72;4980893;28;20649;-79
2023/07/18 10:26:35;;;;;;;2.70;1.20;;;;;;;25.22;24.18;101540.03;4969291;28;20045;-79
2023/07/18 10:29:04;;;;;;;2.67;1.17;;;;;;;25.18;24.38;101536.78;4985324;28;20134;-79
2023/07/18 10:31:35;;;;;;;3.08;1.38;;;;;;;25.20;23.98;101533.78;4971094;28;20071;-79
2023/07/18 10:34:10;;;;;;;2.80;1.30;;;;;;;25.16;24.24;101524.94;4975445;28;20511;-79
2023/07/18 10:36:39;;;;;;;3.65;1.60;;;;;;;25.15;24.36;101516.75;4985253;28;20043;-80
2023/07/18 10:39:10;;;;;;;2.90;1.20;;;;;;;25.14;24.34;101510.28;4955466;28;20055;-80
2023/07/18 10:41:42;;;;;;;3.22;1.27;;;;;;;25.12;24.38;101506.84;4955505;28;20032;-80
2023/07/18 10:44:11;;;;;;;2.85;1.33;;;;;;;25.11;24.29;101512.66;4955174;28;20050;-79
2023/07/18 10:46:43;;;;;;;4.13;1.17;;;;;;;25.10;24.20;101508.13;4987651;28;20072;-79
2023/07/18 10:49:12;;;;;;;4.43;1.20;;;;;;;25.11;24.03;101504.25;4955524;28;20078;-80
2023/07/18 10:51:40;;;;;;;2.50;1.25;;;;;;;25.07;24.11;101502.94;4971570;28;20125;-80
2023/07/18 10:54:09;;;;;;;2.35;1.25;;;;;;;25.05;23.91;101494.78;4970779;28;20058;-80
2023/07/18 10:56:37;;;;;;;2.28;1.20;;;;;;;25.02;23.92;101492.41;4972640;28;20586;-79
2023/07/18 10:59:05;;;;;;;3.05;1.48;;;;;;;25.00;24.01;101494.56;4992242;28;20042;-79
2023/07/18 11:01:34;;;;;;;2.08;1.20;;;;;;;24.99;24.40;101494.75;4992380;28;20046;-78
2023/07/18 11:04:07;;;;;;;2.08;1.20;;;;;;;25.01;24.14;101492.63;4991322;28;20039;-79
2023/07/18 11:06:36;;;;;;;3.13;1.20;;;;;;;24.99;24.31;101490.03;4955552;28;20077;-78
2023/07/18 11:09:12;;;;;;;2.92;1.30;;;;;;;25.00;24.30;101494.56;4969990;28;20039;-79
2023/07/18 11:11:40;;;;;;;2.35;1.20;;;;;;;24.96;24.49;101484.88;4969598;28;20147;-79
2023/07/18 11:14:08;;;;;;;4.78;1.40;;;;;;;24.96;24.15;101473.66;4970678;28;20041;-80
2023/07/18 11:16:37;;;;;;;3.17;1.42;;;;;;;24.96;24.01;101462.47;4986693;28;20526;-80
2023/07/18 11:19:07;;;;;;;2.78;1.20;;;;;;;24.98;24.02;101470.66;4970316;28;20414;-79
2023/07/18 11:21:37;;;;;;;3.75;1.40;;;;;;;24.94;24.13;101463.75;4986185;28;21020;-80
2023/07/18 11:24:06;;;;;;;4.25;1.38;;;;;;;24.94;24.19;101470.22;4984965;28;20495;-79
2023/07/18 11:26:34;;;;;;;2.30;1.30;;;;;;;24.91;24.26;101456.59;4986320;28;20051;-79
2023/07/18 11:29:05;;;;;;;3.55;1.38;;;;;;;24.94;24.26;101459.00;4955191;28;20106;-79
2023/07/18 11:31:40;;;;;;;3.08;1.23;;;;;;;24.95;24.19;101455.13;4954264;28;20411;-79
2023/07/18 11:34:10;;;;;;;2.92;1.13;;;;;;;24.92;24.44;101451.88;4976049;28;20500;-79